createdAt,value
2017-10-16T00:02:03.217Z,62.9
2017-10-16T00:07:03.707Z,62.9
2017-10-16T00:12:03.552Z,62.7
2017-10-16T00:17:03.336Z,62.8
2017-10-16T00:22:03.963Z,62.8
2017-10-16T00:27:03.504Z,62.8
2017-10-16T00:32:04.012Z,62.8
2017-10-16T00:37:03.631Z,62.7
2017-10-16T00:42:03.146Z,62.7
2017-10-16T00:47:03.746Z,62.7
2017-10-16T00:52:03.496Z,62.7
2017-10-16T00:57:03.070Z,62.7
2017-10-16T01:02:03.754Z,62.5
2017-10-16T01:07:03.352Z,62.5
2017-10-16T01:12:03.986Z,62.3
2017-10-16T01:17:03.792Z,62.3
2017-10-16T01:22:03.326Z,62.3
2017-10-16T01:27:03.863Z,62.3
2017-10-16T01:32:03.510Z,62.0
2017-10-16T01:37:03.150Z,62.0
2017-10-16T01:42:03.629Z,62.1
2017-10-16T01:47:03.240Z,62.0
2017-10-16T01:52:03.648Z,62.0
2017-10-16T01:57:03.278Z,61.8
2017-10-16T02:02:03.129Z,61.8
2017-10-16T02:07:03.484Z,61.6
2017-10-16T02:12:03.508Z,61.5
2017-10-16T02:17:05.643Z,61.5
2017-10-16T02:22:03.905Z,61.6
2017-10-16T02:27:03.472Z,61.6
2017-10-16T02:32:03.165Z,61.5
2017-10-16T02:37:03.462Z,61.5
2017-10-16T02:42:03.456Z,61.6
2017-10-16T02:47:03.599Z,61.4
2017-10-16T02:52:03.658Z,61.4
2017-10-16T02:57:03.744Z,61.4
2017-10-16T03:02:03.913Z,61.5
2017-10-16T03:07:03.292Z,61.5
2017-10-16T03:12:03.437Z,61.4
2017-10-16T03:17:03.567Z,61.5
2017-10-16T03:22:03.678Z,61.5
2017-10-16T03:27:03.768Z,61.4
2017-10-16T03:32:03.856Z,61.3
2017-10-16T03:37:03.962Z,61.3
2017-10-16T03:42:03.192Z,61.4
2017-10-16T03:47:03.340Z,61.4
2017-10-16T03:52:03.454Z,61.4
2017-10-16T03:57:03.495Z,61.3
2017-10-16T04:02:03.725Z,61.6
2017-10-16T04:07:03.832Z,61.4
2017-10-16T04:12:03.162Z,61.2
2017-10-16T04:17:03.437Z,60.9
2017-10-16T04:22:03.538Z,60.9
2017-10-16T04:27:03.448Z,60.8
2017-10-16T04:32:03.570Z,60.8
2017-10-16T04:37:03.612Z,60.9
2017-10-16T04:42:03.641Z,60.8
2017-10-16T04:47:03.705Z,60.8
2017-10-16T04:52:03.737Z,60.7
2017-10-16T04:57:03.849Z,60.8
2017-10-16T05:02:03.988Z,60.7
2017-10-16T05:07:03.156Z,60.8
2017-10-16T05:12:03.465Z,60.7
2017-10-16T05:17:16.600Z,60.7
2017-10-16T05:22:03.954Z,60.7
2017-10-16T05:27:03.175Z,60.6
2017-10-16T05:32:28.271Z,60.7
2017-10-16T05:37:03.530Z,60.7
2017-10-16T05:42:03.904Z,60.7
2017-10-16T05:47:23.911Z,60.7
2017-10-16T05:52:03.464Z,60.6
2017-10-16T05:57:03.749Z,60.6
2017-10-16T06:02:23.410Z,60.4
2017-10-16T06:07:03.793Z,60.4
2017-10-16T06:12:03.076Z,60.6
2017-10-16T06:17:27.305Z,60.6
2017-10-16T06:22:03.149Z,60.4
2017-10-16T06:27:03.420Z,60.0
2017-10-16T06:32:28.527Z,59.9
2017-10-16T06:37:03.828Z,59.8
2017-10-16T06:42:02.937Z,59.8
2017-10-16T06:47:24.921Z,59.8
2017-10-16T06:52:03.331Z,59.7
2017-10-16T06:57:03.514Z,59.6
2017-10-16T07:02:25.873Z,59.4
2017-10-16T07:07:03.396Z,59.3
2017-10-16T07:12:03.712Z,59.3
2017-10-16T07:17:29.581Z,59.3
2017-10-16T07:22:03.551Z,59.3
2017-10-16T07:27:03.713Z,59.4
2017-10-16T07:32:24.540Z,59.4
2017-10-16T07:37:03.122Z,59.4
2017-10-16T07:42:03.325Z,59.5
2017-10-16T07:47:24.656Z,59.5
2017-10-16T07:52:02.940Z,59.8
2017-10-16T07:57:03.222Z,59.8
2017-10-16T08:02:25.570Z,60.0
2017-10-16T08:07:03.747Z,59.8
2017-10-16T08:12:03.464Z,59.8
2017-10-16T08:17:28.957Z,60.1
2017-10-16T08:22:03.285Z,60.4
2017-10-16T08:27:03.579Z,60.3
2017-10-16T08:32:24.404Z,60.6
2017-10-16T08:37:03.467Z,60.7
2017-10-16T08:42:03.712Z,60.9
2017-10-16T08:47:28.018Z,61.0
2017-10-16T08:52:03.023Z,61.2
2017-10-16T08:57:03.331Z,61.4
2017-10-16T09:02:23.978Z,61.6
2017-10-16T09:07:03.717Z,61.6
2017-10-16T09:12:03.209Z,61.8
2017-10-16T09:17:23.912Z,62.2
2017-10-16T09:22:03.688Z,62.4
2017-10-16T09:27:03.950Z,62.5
2017-10-16T09:32:23.591Z,62.6
2017-10-16T09:37:03.045Z,62.9
2017-10-16T09:42:03.485Z,63.2
2017-10-16T09:47:23.442Z,63.3
2017-10-16T09:52:02.972Z,63.9
2017-10-16T09:57:03.699Z,64.2
2017-10-16T10:02:23.832Z,63.7
2017-10-16T10:07:03.752Z,64.8
2017-10-16T10:12:03.753Z,64.9
2017-10-16T10:17:28.301Z,64.9
2017-10-16T10:22:03.253Z,65.3
2017-10-16T10:27:03.474Z,65.5
2017-10-16T10:32:26.531Z,65.9
2017-10-16T10:37:03.814Z,66.6
2017-10-16T10:42:03.533Z,66.7
2017-10-16T10:47:23.873Z,66.7
2017-10-16T10:52:03.632Z,66.9
2017-10-16T10:57:03.411Z,66.8
2017-10-16T11:02:23.982Z,67.0
2017-10-16T11:07:03.719Z,67.6
2017-10-16T11:12:03.367Z,67.5
2017-10-16T11:17:26.091Z,68.2
2017-10-16T11:22:03.001Z,68.2
2017-10-16T11:27:03.263Z,68.3
2017-10-16T11:32:24.547Z,68.1
2017-10-16T11:37:03.948Z,68.1
2017-10-16T11:42:03.810Z,68.9
2017-10-16T11:47:18.741Z,68.8
2017-10-16T11:52:03.520Z,68.8
2017-10-16T11:57:03.550Z,69.4
2017-10-16T12:02:22.971Z,69.5
2017-10-16T12:07:03.698Z,69.4
2017-10-16T12:12:03.042Z,69.5
2017-10-16T12:17:24.313Z,69.6
2017-10-16T12:22:03.798Z,70.1
2017-10-16T12:27:02.992Z,70.2
2017-10-16T12:32:23.521Z,70.2
2017-10-16T12:37:03.109Z,70.1
2017-10-16T12:42:03.360Z,70.9
2017-10-16T12:47:24.454Z,70.9
2017-10-16T12:52:02.931Z,71.0
2017-10-16T12:57:03.249Z,71.0
2017-10-16T13:02:25.713Z,71.3
2017-10-16T13:07:03.218Z,71.3
2017-10-16T13:12:03.591Z,71.6
2017-10-16T13:17:24.071Z,71.6
2017-10-16T13:22:03.761Z,72.5
2017-10-16T13:27:03.919Z,72.3
2017-10-16T13:32:27.934Z,72.0
2017-10-16T13:37:03.584Z,71.9
2017-10-16T13:42:03.720Z,71.1
2017-10-16T13:47:23.383Z,69.7
2017-10-16T13:52:03.041Z,69.7
2017-10-16T13:57:03.384Z,68.8
2017-10-16T14:02:24.609Z,65.9
2017-10-16T14:07:03.100Z,65.8
2017-10-16T14:12:03.381Z,64.3
2017-10-16T14:17:27.914Z,62.9
2017-10-16T14:22:03.071Z,60.0
2017-10-16T14:27:03.459Z,60.0
2017-10-16T14:32:28.546Z,58.1
2017-10-16T14:37:03.768Z,58.1
2017-10-16T14:42:03.885Z,56.7
2017-10-16T14:47:21.743Z,56.7
2017-10-16T14:52:03.339Z,56.7
2017-10-16T14:57:03.564Z,56.1
2017-10-16T15:02:22.208Z,55.8
2017-10-16T15:07:03.371Z,55.6
2017-10-16T15:12:03.566Z,55.6
2017-10-16T15:17:24.068Z,56.0
2017-10-16T15:22:03.551Z,56.0
2017-10-16T15:27:03.805Z,56.2
2017-10-16T15:32:22.496Z,56.5
2017-10-16T15:37:03.747Z,56.5
2017-10-16T15:42:03.891Z,57.0
2017-10-16T15:47:21.948Z,57.8
2017-10-16T15:52:03.707Z,57.8
2017-10-16T15:57:03.846Z,58.3
2017-10-16T16:02:22.823Z,59.8
2017-10-16T16:07:03.699Z,59.7
2017-10-16T16:12:03.931Z,60.2
2017-10-16T16:17:21.926Z,63.6
2017-10-16T16:22:03.024Z,64.9
2017-10-16T16:27:03.265Z,66.4
2017-10-16T16:32:26.709Z,66.4
2017-10-16T16:37:03.536Z,67.9
2017-10-16T16:42:03.620Z,68.8
2017-10-16T16:47:24.905Z,69.3
2017-10-16T16:52:03.042Z,69.3
2017-10-16T16:57:03.216Z,69.1
2017-10-16T17:02:23.763Z,68.7
2017-10-16T17:07:03.524Z,68.8
2017-10-16T17:12:03.799Z,68.8
2017-10-16T17:17:08.721Z,68.6
2017-10-16T17:22:03.232Z,68.5
2017-10-16T17:27:03.502Z,68.5
2017-10-16T17:32:03.755Z,68.1
2017-10-16T17:37:03.817Z,68.1
2017-10-16T17:42:03.924Z,68.1
2017-10-16T17:47:03.052Z,67.9
2017-10-16T17:52:03.251Z,67.5
2017-10-16T17:57:03.426Z,67.5
2017-10-16T18:02:03.529Z,67.3
2017-10-16T18:07:03.632Z,67.1
2017-10-16T18:12:03.902Z,67.2
2017-10-16T18:17:03.987Z,67.0
2017-10-16T18:22:03.185Z,67.0
2017-10-16T18:27:03.355Z,66.6
2017-10-16T18:32:04.647Z,66.4
2017-10-16T18:37:03.512Z,66.4
2017-10-16T18:42:03.537Z,66.3
2017-10-16T18:47:03.689Z,66.2
2017-10-16T18:52:03.782Z,65.9
2017-10-16T18:57:03.842Z,65.9
2017-10-16T19:02:03.048Z,65.5
2017-10-16T19:07:03.476Z,65.5
2017-10-16T19:12:03.866Z,64.9
2017-10-16T19:17:03.862Z,64.9
2017-10-16T19:22:03.791Z,64.6
2017-10-16T19:27:03.852Z,64.3
2017-10-16T19:32:03.976Z,64.3
2017-10-16T19:37:03.487Z,64.3
2017-10-16T19:42:03.521Z,64.2
2017-10-16T19:47:03.600Z,64.3
2017-10-16T19:52:03.570Z,64.2
2017-10-16T19:57:03.622Z,64.2
2017-10-16T20:02:03.990Z,64.2
2017-10-16T20:07:03.966Z,64.1
2017-10-16T20:12:03.148Z,64.0
2017-10-16T20:17:03.538Z,64.0
2017-10-16T20:22:03.493Z,63.7
2017-10-16T20:27:03.503Z,63.5
2017-10-16T20:32:03.680Z,63.4
2017-10-16T20:37:03.763Z,63.5
2017-10-16T20:42:03.879Z,63.6
2017-10-16T20:47:04.018Z,63.6
2017-10-16T20:52:03.189Z,63.3
2017-10-16T20:57:03.343Z,63.2
2017-10-16T21:02:03.570Z,63.2
2017-10-16T21:07:03.662Z,63.3
2017-10-16T21:12:03.942Z,63.1
2017-10-16T21:17:03.234Z,62.9
2017-10-16T21:22:03.361Z,62.8
2017-10-16T21:27:03.463Z,62.7
2017-10-16T21:32:03.567Z,62.6
2017-10-16T21:37:03.616Z,62.5
2017-10-16T21:42:03.643Z,62.6
2017-10-16T21:47:03.744Z,62.6
2017-10-16T21:52:03.885Z,62.5
2017-10-16T21:57:03.879Z,62.4
2017-10-16T22:02:03.179Z,62.4
2017-10-16T22:07:03.577Z,62.3
2017-10-16T22:12:03.711Z,62.2
2017-10-16T22:22:03.951Z,62.0
2017-10-16T22:27:03.132Z,62.3
2017-10-16T22:32:03.779Z,62.4
2017-10-16T22:37:03.736Z,62.4
2017-10-16T22:42:03.458Z,62.4
2017-10-16T22:47:03.913Z,62.4
2017-10-16T22:52:03.420Z,62.5
2017-10-16T22:57:03.142Z,62.3
2017-10-16T23:02:03.872Z,62.5
2017-10-16T23:07:03.170Z,62.2
2017-10-16T23:12:03.736Z,62.2
2017-10-16T23:17:03.686Z,62.1
2017-10-16T23:22:03.024Z,62.0
2017-10-16T23:27:03.652Z,61.9
2017-10-16T23:32:03.165Z,61.8
2017-10-16T23:37:03.656Z,61.9
2017-10-16T23:42:03.273Z,61.8
2017-10-16T23:47:03.132Z,61.8
2017-10-16T23:52:03.747Z,61.6
2017-10-16T23:57:03.196Z,61.6
